createdAt,value
2022-09-11T00:00:39.952Z,996.15
2022-09-11T00:01:39.998Z,996.17
2022-09-11T00:02:39.960Z,996.19
2022-09-11T00:03:39.964Z,996.18
2022-09-11T00:04:39.951Z,996.19
2022-09-11T00:05:39.931Z,996.19
2022-09-11T00:06:39.899Z,996.16
2022-09-11T00:07:39.897Z,996.20
2022-09-11T00:08:39.881Z,996.22
2022-09-11T00:09:39.908Z,996.23
2022-09-11T00:10:39.868Z,996.26
2022-09-11T00:11:39.860Z,996.28
2022-09-11T00:12:39.857Z,996.28
2022-09-11T00:13:39.883Z,996.23
2022-09-11T00:14:39.864Z,996.22
2022-09-11T00:15:39.867Z,996.23
2022-09-11T00:16:39.824Z,996.22
2022-09-11T00:17:39.818Z,996.22
2022-09-11T00:18:39.808Z,996.23
2022-09-11T00:19:39.821Z,996.18
2022-09-11T00:20:39.882Z,996.22
2022-09-11T00:21:39.776Z,996.21
2022-09-11T00:22:39.852Z,996.33
2022-09-11T00:23:39.795Z,996.27
2022-09-11T00:24:39.777Z,996.27
2022-09-11T00:25:39.738Z,996.31
2022-09-11T00:26:39.730Z,996.33
2022-09-11T00:27:39.720Z,996.24
2022-09-11T00:28:39.726Z,996.32
2022-09-11T00:29:39.726Z,996.29
2022-09-11T00:30:39.693Z,996.25
2022-09-11T00:31:39.966Z,996.34
2022-09-11T00:32:39.675Z,996.40
2022-09-11T00:33:39.722Z,996.35
2022-09-11T00:34:39.766Z,996.38
2022-09-11T00:35:39.652Z,996.37
2022-09-11T00:36:39.643Z,996.44
2022-09-11T00:37:39.633Z,996.49
2022-09-11T00:38:39.619Z,996.40
2022-09-11T00:39:39.685Z,996.42
2022-09-11T00:40:39.621Z,996.48
2022-09-11T00:41:39.607Z,996.42
2022-09-11T00:42:39.595Z,996.46
2022-09-11T00:43:39.591Z,996.47
2022-09-11T00:44:39.598Z,996.42
2022-09-11T00:45:39.643Z,996.47
2022-09-11T00:46:39.553Z,996.42
2022-09-11T00:47:39.571Z,996.39
2022-09-11T00:48:39.541Z,996.51
2022-09-11T00:49:39.555Z,996.50
2022-09-11T00:50:39.553Z,996.48
2022-09-11T00:51:39.520Z,996.51
2022-09-11T00:52:39.507Z,996.53
2022-09-11T00:53:39.541Z,996.56
2022-09-11T00:54:39.513Z,996.53
2022-09-11T00:55:39.484Z,996.55
2022-09-11T00:56:39.476Z,996.52
2022-09-11T00:57:39.474Z,996.52
2022-09-11T00:58:39.509Z,996.52
2022-09-11T00:59:39.476Z,996.55
2022-09-11T01:00:39.688Z,996.55
2022-09-11T01:01:39.481Z,996.54
2022-09-11T01:02:39.415Z,996.60
2022-09-11T01:03:39.432Z,996.53
2022-09-11T01:04:39.440Z,996.62
2022-09-11T01:05:39.429Z,996.57
2022-09-11T01:06:39.384Z,996.52
2022-09-11T01:07:39.384Z,996.56
2022-09-11T01:08:39.439Z,996.55
2022-09-11T01:09:39.392Z,996.49
2022-09-11T01:10:39.355Z,996.57
2022-09-11T01:11:39.355Z,996.56
2022-09-11T01:12:39.338Z,996.56
2022-09-11T01:13:39.497Z,996.54
2022-09-11T01:14:39.353Z,996.56
2022-09-11T01:15:39.313Z,996.52
2022-09-11T01:16:40.330Z,996.52
2022-09-11T01:17:39.304Z,996.57
2022-09-11T01:18:39.290Z,996.56
2022-09-11T01:19:39.328Z,996.61
2022-09-11T01:20:39.268Z,996.60
2022-09-11T01:21:39.387Z,996.58
2022-09-11T01:24:04.804Z,996.55
2022-09-11T01:25:04.797Z,996.50
2022-09-11T01:26:04.790Z,996.51
2022-09-11T01:27:04.812Z,996.55
2022-09-11T01:28:04.785Z,996.56
2022-09-11T01:29:04.765Z,996.59
2022-09-11T01:30:07.195Z,996.54
2022-09-11T01:31:04.805Z,996.53
2022-09-11T01:32:04.752Z,996.52
2022-09-11T01:33:05.894Z,996.47
2022-09-11T01:34:05.874Z,996.55
2022-09-11T01:35:05.888Z,996.54
2022-09-11T01:36:05.859Z,996.54
2022-09-11T01:37:05.847Z,996.61
2022-09-11T01:38:05.915Z,996.58
2022-09-11T01:39:05.831Z,996.53
2022-09-11T01:40:05.927Z,996.61
2022-09-11T01:41:05.819Z,996.55
2022-09-11T01:42:05.809Z,996.54
2022-09-11T01:43:05.788Z,996.61
2022-09-11T01:44:05.798Z,996.55
2022-09-11T01:45:05.801Z,996.58
2022-09-11T01:46:05.784Z,996.63
2022-09-11T01:47:05.757Z,996.63
2022-09-11T01:48:05.837Z,996.65
2022-09-11T01:49:05.742Z,996.63
2022-09-11T01:50:05.768Z,996.61
2022-09-11T01:51:05.731Z,996.70
2022-09-11T01:52:05.727Z,996.64
2022-09-11T01:53:05.707Z,996.67
2022-09-11T01:54:05.723Z,996.69
2022-09-11T01:55:05.728Z,996.66
2022-09-11T01:56:05.735Z,996.72
2022-09-11T01:57:05.674Z,996.69
2022-09-11T01:58:05.672Z,996.71
2022-09-11T01:59:05.678Z,996.72
2022-09-11T02:00:05.683Z,996.72
2022-09-11T02:01:05.679Z,996.69
2022-09-11T02:02:05.753Z,996.70
2022-09-11T02:03:05.636Z,996.74
2022-09-11T02:04:05.690Z,996.80
2022-09-11T02:05:05.749Z,996.75
2022-09-11T02:06:05.608Z,996.73
2022-09-11T02:07:05.678Z,996.77
2022-09-11T02:08:05.591Z,996.72
2022-09-11T02:09:05.577Z,996.76
2022-09-11T02:10:05.636Z,996.79
2022-09-11T02:11:05.567Z,996.70
2022-09-11T02:12:05.625Z,996.77
2022-09-11T02:13:05.581Z,996.80
2022-09-11T02:14:05.537Z,996.77
2022-09-11T02:15:05.764Z,996.76
2022-09-11T02:16:05.584Z,996.83
2022-09-11T02:17:05.509Z,996.82
2022-09-11T02:18:05.501Z,996.81
2022-09-11T02:19:05.493Z,996.86
2022-09-11T02:20:05.511Z,996.89
2022-09-11T02:21:05.562Z,996.89
2022-09-11T02:22:05.471Z,996.91
2022-09-11T02:23:05.463Z,996.94
2022-09-11T02:24:05.461Z,996.91
2022-09-11T02:25:05.469Z,996.94
2022-09-11T02:26:05.448Z,996.94
2022-09-11T02:27:05.428Z,996.95
2022-09-11T02:28:05.417Z,996.91
2022-09-11T02:29:05.407Z,997.03
2022-09-11T02:30:05.423Z,996.95
2022-09-11T02:31:05.477Z,997.08
2022-09-11T02:32:05.393Z,996.98
2022-09-11T02:33:05.398Z,996.96
2022-09-11T02:34:05.432Z,997.01
2022-09-11T02:35:05.384Z,997.04
2022-09-11T02:36:05.348Z,997.05
2022-09-11T02:37:05.342Z,997.06
2022-09-11T02:38:05.326Z,997.05
2022-09-11T02:39:05.320Z,997.02
2022-09-11T02:40:05.397Z,997.03
2022-09-11T02:41:05.298Z,997.04
2022-09-11T02:42:05.339Z,997.05
2022-09-11T02:43:05.282Z,997.11
2022-09-11T02:44:05.326Z,997.03
2022-09-11T02:45:05.298Z,997.06
2022-09-11T02:46:05.306Z,997.08
2022-09-11T02:47:05.285Z,997.09
2022-09-11T02:48:05.257Z,997.06
2022-09-11T02:49:05.235Z,997.14
2022-09-11T02:50:05.257Z,997.12
2022-09-11T02:51:05.233Z,997.09
2022-09-11T02:52:05.232Z,997.10
2022-09-11T02:53:05.226Z,997.09
2022-09-11T02:54:05.191Z,997.12
2022-09-11T02:55:05.237Z,997.18
2022-09-11T02:56:05.174Z,997.15
2022-09-11T02:57:05.177Z,997.17
2022-09-11T02:58:05.162Z,997.14
2022-09-11T02:59:05.148Z,997.17
2022-09-11T03:00:05.174Z,997.13
2022-09-11T03:01:05.201Z,997.16
2022-09-11T03:02:05.138Z,997.16
2022-09-11T03:03:05.141Z,997.21
2022-09-11T03:04:05.109Z,997.23
2022-09-11T03:05:05.143Z,997.21
2022-09-11T03:06:05.113Z,997.28
2022-09-11T03:07:05.084Z,997.22
2022-09-11T03:08:05.074Z,997.29
2022-09-11T03:09:05.072Z,997.31
2022-09-11T03:10:05.102Z,997.24
2022-09-11T03:11:05.061Z,997.30
2022-09-11T03:12:05.104Z,997.30
2022-09-11T03:13:05.045Z,997.34
2022-09-11T03:14:05.044Z,997.28
2022-09-11T03:15:05.060Z,997.32
2022-09-11T03:16:05.065Z,997.43
2022-09-11T03:17:05.028Z,997.32
2022-09-11T03:18:04.989Z,997.28
2022-09-11T03:19:05.016Z,997.37
2022-09-11T03:20:05.017Z,997.34
2022-09-11T03:21:04.972Z,997.38
2022-09-11T03:22:04.972Z,997.33
2022-09-11T03:23:04.957Z,997.37
2022-09-11T03:24:04.950Z,997.35
2022-09-11T03:25:04.975Z,997.35
2022-09-11T03:26:04.935Z,997.37
2022-09-11T03:27:04.921Z,997.41
2022-09-11T03:28:04.913Z,997.37
2022-09-11T03:29:04.903Z,997.34
2022-09-11T03:30:04.893Z,997.37
2022-09-11T03:31:04.944Z,997.42
2022-09-11T03:32:04.907Z,997.40
2022-09-11T03:33:04.874Z,997.45
2022-09-11T03:34:04.863Z,997.38
2022-09-11T03:35:04.899Z,997.39
2022-09-11T03:36:04.867Z,997.38
2022-09-11T03:37:05.845Z,997.42
2022-09-11T03:38:04.842Z,997.44
2022-09-11T03:39:04.829Z,997.47
2022-09-11T03:40:04.869Z,997.40
2022-09-11T03:41:04.844Z,997.49
2022-09-11T03:42:04.800Z,997.50
2022-09-11T03:43:04.787Z,997.54
2022-09-11T03:44:04.778Z,997.49
2022-09-11T03:45:04.770Z,997.53
2022-09-11T03:46:04.850Z,997.50
2022-09-11T03:47:04.755Z,997.50
2022-09-11T03:48:04.766Z,997.54
2022-09-11T03:49:04.738Z,997.61
2022-09-11T03:50:04.731Z,997.56
2022-09-11T03:51:04.750Z,997.60
2022-09-11T03:52:04.715Z,997.53
2022-09-11T03:53:04.710Z,997.55
2022-09-11T03:54:04.737Z,997.58
2022-09-11T03:55:04.691Z,997.59
2022-09-11T03:56:04.714Z,997.57
2022-09-11T03:57:04.670Z,997.64
2022-09-11T03:58:04.666Z,997.65
2022-09-11T03:59:04.654Z,997.62
2022-09-11T04:00:04.645Z,997.64
2022-09-11T04:01:04.704Z,997.64
2022-09-11T04:02:04.674Z,997.58
2022-09-11T04:03:04.622Z,997.63
2022-09-11T04:04:04.647Z,997.67
2022-09-11T04:05:04.680Z,997.64
2022-09-11T04:06:04.624Z,997.64
2022-09-11T04:07:04.633Z,997.65
2022-09-11T04:08:04.585Z,997.63
2022-09-11T04:09:04.583Z,997.63
2022-09-11T04:10:04.599Z,997.62
2022-09-11T04:11:04.588Z,997.55
2022-09-11T04:12:04.556Z,997.58
2022-09-11T04:13:04.553Z,997.64
2022-09-11T04:14:04.545Z,997.65
2022-09-11T04:15:04.579Z,997.65
2022-09-11T04:16:04.634Z,997.65
2022-09-11T04:17:04.517Z,997.74
2022-09-11T04:18:05.678Z,997.74
2022-09-11T04:19:05.488Z,997.64
2022-09-11T04:20:04.490Z,997.70
2022-09-11T04:21:04.518Z,997.65
2022-09-11T04:22:04.476Z,997.76
2022-09-11T04:23:04.479Z,997.68
2022-09-11T04:24:04.447Z,997.71
2022-09-11T04:25:04.440Z,997.79
2022-09-11T04:26:04.498Z,997.71
2022-09-11T04:27:04.426Z,997.73
2022-09-11T04:28:04.418Z,997.77
2022-09-11T04:29:04.418Z,997.74
2022-09-11T04:30:04.415Z,997.74
2022-09-11T04:31:04.426Z,997.75
2022-09-11T04:32:04.388Z,997.80
2022-09-11T04:33:04.383Z,997.75
2022-09-11T04:34:04.372Z,997.76
2022-09-11T04:35:04.360Z,997.73
2022-09-11T04:36:04.385Z,997.73
2022-09-11T04:37:04.342Z,997.78
2022-09-11T04:38:04.338Z,997.76
2022-09-11T04:39:04.331Z,997.76
2022-09-11T04:40:04.485Z,997.86
2022-09-11T04:41:04.351Z,997.80
2022-09-11T04:42:04.311Z,997.83
2022-09-11T04:43:04.294Z,997.79
2022-09-11T04:44:05.679Z,997.81
2022-09-11T04:45:05.302Z,997.87
2022-09-11T04:46:04.387Z,997.83
2022-09-11T04:47:04.280Z,997.82
2022-09-11T04:48:04.266Z,997.88
2022-09-11T04:49:04.262Z,997.84
2022-09-11T04:50:04.250Z,997.86
2022-09-11T04:51:04.265Z,997.89
2022-09-11T04:52:04.224Z,997.96
2022-09-11T04:53:04.286Z,997.92
2022-09-11T04:54:04.199Z,997.93
2022-09-11T04:55:04.292Z,997.93
2022-09-11T04:56:04.224Z,997.90
2022-09-11T04:57:04.177Z,997.92
2022-09-11T04:58:04.168Z,997.94
2022-09-11T04:59:04.165Z,997.97
2022-09-11T05:00:04.151Z,997.96
2022-09-11T05:01:04.317Z,997.98
2022-09-11T05:02:04.237Z,998.03
2022-09-11T05:03:04.122Z,998.02
2022-09-11T05:04:04.119Z,997.98
2022-09-11T05:05:04.112Z,998.02
2022-09-11T05:06:04.130Z,998.05
2022-09-11T05:07:04.089Z,998.07
2022-09-11T05:08:04.087Z,998.06
2022-09-11T05:09:04.081Z,998.06
2022-09-11T05:10:04.072Z,998.04
2022-09-11T05:11:04.088Z,998.01
2022-09-11T05:12:04.070Z,998.08
2022-09-11T05:13:04.037Z,998.07
2022-09-11T05:14:04.031Z,998.06
2022-09-11T05:15:04.016Z,998.17
2022-09-11T05:16:05.113Z,998.17
2022-09-11T05:17:04.001Z,998.08
2022-09-11T05:18:04.000Z,998.13
2022-09-11T05:19:03.984Z,998.15
2022-09-11T05:20:06.628Z,998.20
2022-09-11T05:21:03.996Z,998.20
2022-09-11T05:22:03.966Z,998.23
2022-09-11T05:23:03.946Z,998.22
2022-09-11T05:24:03.950Z,998.16
2022-09-11T05:25:03.944Z,998.23
2022-09-11T05:26:04.005Z,998.18
2022-09-11T05:27:03.921Z,998.22
2022-09-11T05:28:03.909Z,998.25
2022-09-11T05:29:04.004Z,998.25
2022-09-11T05:30:03.896Z,998.17
2022-09-11T05:31:03.923Z,998.19
2022-09-11T05:32:03.909Z,998.26
2022-09-11T05:33:03.877Z,998.29
2022-09-11T05:34:03.854Z,998.25
2022-09-11T05:35:03.847Z,998.26
2022-09-11T05:36:03.884Z,998.29
2022-09-11T05:37:03.829Z,998.34
2022-09-11T05:38:03.834Z,998.27
2022-09-11T05:39:03.830Z,998.35
2022-09-11T05:40:03.846Z,998.35
2022-09-11T05:41:03.836Z,998.35
2022-09-11T05:42:03.830Z,998.31
2022-09-11T05:43:03.797Z,998.39
2022-09-11T05:44:03.787Z,998.37
2022-09-11T05:45:03.775Z,998.38
2022-09-11T05:46:03.837Z,998.39
2022-09-11T05:47:03.774Z,998.47
2022-09-11T05:48:03.752Z,998.48
2022-09-11T05:49:03.759Z,998.50
2022-09-11T05:50:03.731Z,998.49
2022-09-11T05:51:03.714Z,998.55
2022-09-11T05:52:03.742Z,998.58
2022-09-11T05:53:03.694Z,998.56
2022-09-11T05:54:03.689Z,998.49
2022-09-11T05:55:03.709Z,998.58
2022-09-11T05:56:03.689Z,998.63
2022-09-11T05:57:07.618Z,998.62
2022-09-11T05:58:04.657Z,998.58
2022-09-11T05:59:03.651Z,998.59
2022-09-11T06:00:03.656Z,998.56
2022-09-11T06:01:03.656Z,998.60
2022-09-11T06:02:03.698Z,998.66
2022-09-11T06:03:03.656Z,998.73
2022-09-11T06:04:03.607Z,998.70
2022-09-11T06:05:03.612Z,998.68
2022-09-11T06:06:03.626Z,998.75
2022-09-11T06:07:03.615Z,998.76
2022-09-11T06:08:03.590Z,998.84
2022-09-11T06:09:03.562Z,998.81
2022-09-11T06:10:03.656Z,998.84
2022-09-11T06:11:03.558Z,998.87
2022-09-11T06:12:03.585Z,998.87
2022-09-11T06:13:03.569Z,998.90
2022-09-11T06:14:03.538Z,998.89
2022-09-11T06:15:03.516Z,998.91
2022-09-11T06:16:03.506Z,998.92
2022-09-11T06:17:03.526Z,998.95
2022-09-11T06:18:03.498Z,998.97
2022-09-11T06:19:03.475Z,998.96
2022-09-11T06:20:03.469Z,999.02
2022-09-11T06:21:03.525Z,999.03
2022-09-11T06:22:03.477Z,999.02
2022-09-11T06:23:07.335Z,999.01
2022-09-11T06:24:05.573Z,999.04
2022-09-11T06:25:03.428Z,999.04
2022-09-11T06:26:03.419Z,999.08
2022-09-11T06:27:03.444Z,999.15
2022-09-11T06:28:03.407Z,999.12
2022-09-11T06:29:03.396Z,999.17
2022-09-11T06:30:03.392Z,999.19
2022-09-11T06:31:03.401Z,999.15
2022-09-11T06:32:03.402Z,999.25
2022-09-11T06:33:03.363Z,999.15
2022-09-11T06:34:03.348Z,999.15
2022-09-11T06:35:03.340Z,999.15
2022-09-11T06:36:03.336Z,999.15
2022-09-11T06:37:03.361Z,999.22
2022-09-11T06:38:03.322Z,999.19
2022-09-11T06:39:03.315Z,999.17
2022-09-11T06:40:03.360Z,999.20
2022-09-11T06:41:03.294Z,999.17
2022-09-11T06:42:03.324Z,999.19
2022-09-11T06:43:03.275Z,999.24
2022-09-11T06:44:03.269Z,999.25
2022-09-11T06:45:03.265Z,999.30
2022-09-11T06:46:03.365Z,999.28
2022-09-11T06:47:03.272Z,999.20
2022-09-11T06:48:03.261Z,999.21
2022-09-11T06:49:03.227Z,999.24
2022-09-11T06:50:03.435Z,999.25
2022-09-11T06:51:03.224Z,999.24
2022-09-11T06:52:03.232Z,999.24
2022-09-11T06:53:03.196Z,999.20
2022-09-11T06:54:03.185Z,999.18
2022-09-11T06:55:03.172Z,999.22
2022-09-11T06:56:03.167Z,999.20
2022-09-11T06:57:03.193Z,999.13
2022-09-11T06:58:03.171Z,999.23
2022-09-11T06:59:03.146Z,999.25
2022-09-11T07:00:03.131Z,999.25
2022-09-11T07:01:04.235Z,999.23
2022-09-11T07:02:03.204Z,999.23
2022-09-11T07:03:03.105Z,999.19
2022-09-11T07:04:03.103Z,999.27
2022-09-11T07:05:03.095Z,999.24
2022-09-11T07:06:03.094Z,999.19
2022-09-11T07:07:03.115Z,999.17
2022-09-11T07:08:03.078Z,999.20
2022-09-11T07:09:03.093Z,999.19
2022-09-11T07:10:03.107Z,999.12
2022-09-11T07:11:03.051Z,999.18
2022-09-11T07:12:03.275Z,999.24
2022-09-11T07:13:03.047Z,999.26
2022-09-11T07:14:03.026Z,999.19
2022-09-11T07:15:03.039Z,999.27
2022-09-11T07:16:03.011Z,999.22
2022-09-11T07:17:03.025Z,999.24
2022-09-11T07:18:03.012Z,999.24
2022-09-11T07:19:02.982Z,999.25
2022-09-11T07:20:02.983Z,999.24
2022-09-11T07:21:02.967Z,999.25
2022-09-11T07:22:02.986Z,999.22
2022-09-11T07:23:02.949Z,999.24
2022-09-11T07:24:02.938Z,999.28
2022-09-11T07:25:07.100Z,999.22
2022-09-11T07:26:03.930Z,999.30
2022-09-11T07:27:02.936Z,999.27
2022-09-11T07:28:02.906Z,999.23
2022-09-11T07:29:02.898Z,999.23
2022-09-11T07:30:02.888Z,999.23
2022-09-11T07:31:02.907Z,999.24
2022-09-11T07:32:02.899Z,999.19
2022-09-11T07:33:02.869Z,999.17
2022-09-11T07:34:02.869Z,999.14
2022-09-11T07:35:02.859Z,999.21
2022-09-11T07:36:02.865Z,999.22
2022-09-11T07:37:02.872Z,999.15
2022-09-11T07:38:02.829Z,999.21
2022-09-11T07:39:02.815Z,999.23
2022-09-11T07:40:02.852Z,999.20
2022-09-11T07:41:02.805Z,999.22
2022-09-11T07:42:02.822Z,999.30
2022-09-11T07:43:02.788Z,999.39
2022-09-11T07:44:02.780Z,999.40
2022-09-11T07:45:02.770Z,999.36
2022-09-11T07:46:02.814Z,999.41
2022-09-11T07:47:02.782Z,999.34
2022-09-11T07:48:02.747Z,999.37
2022-09-11T07:49:02.741Z,999.34
2022-09-11T07:50:02.772Z,999.41
2022-09-11T07:51:02.721Z,999.39
2022-09-11T07:52:02.752Z,999.31
2022-09-11T07:53:02.705Z,999.35
2022-09-11T07:54:02.691Z,999.43
2022-09-11T07:55:02.691Z,999.37
2022-09-11T07:56:02.685Z,999.44
2022-09-11T07:57:02.715Z,999.39
2022-09-11T07:58:02.684Z,999.42
2022-09-11T07:59:02.658Z,999.43
2022-09-11T08:00:02.647Z,999.47
2022-09-11T08:01:02.642Z,999.41
2022-09-11T08:02:02.715Z,999.44
2022-09-11T08:03:02.649Z,999.32
2022-09-11T08:04:02.616Z,999.49
2022-09-11T08:05:02.613Z,999.37
2022-09-11T08:06:02.602Z,999.52
2022-09-11T08:07:02.619Z,999.43
2022-09-11T08:08:02.583Z,999.42
2022-09-11T08:09:02.583Z,999.38
2022-09-11T08:10:26.202Z,999.42
2022-09-11T08:11:04.552Z,999.45
2022-09-11T08:12:02.579Z,999.58
2022-09-11T08:13:02.573Z,999.49
2022-09-11T08:14:02.522Z,999.44
2022-09-11T08:15:02.524Z,999.60
2022-09-11T08:16:02.505Z,999.63
2022-09-11T08:17:02.512Z,999.64
2022-09-11T08:18:02.529Z,999.60
2022-09-11T08:19:02.489Z,999.55
2022-09-11T08:20:02.488Z,999.60
2022-09-11T08:21:02.473Z,999.52
2022-09-11T08:22:02.462Z,999.54
2022-09-11T08:23:02.479Z,999.52
2022-09-11T08:24:02.446Z,999.56
2022-09-11T08:25:02.435Z,999.72
2022-09-11T08:26:02.438Z,999.59
2022-09-11T08:27:02.425Z,999.60
2022-09-11T08:28:02.453Z,999.52
2022-09-11T08:29:02.415Z,999.59
2022-09-11T08:30:02.398Z,999.57
2022-09-11T08:31:02.420Z,999.60
2022-09-11T08:32:02.637Z,999.64
2022-09-11T08:33:03.408Z,999.62
2022-09-11T08:34:02.370Z,999.58
2022-09-11T08:35:02.359Z,999.55
2022-09-11T08:36:02.360Z,999.61
2022-09-11T08:37:02.351Z,999.63
2022-09-11T08:38:02.359Z,999.68
2022-09-11T08:39:03.347Z,999.68
2022-09-11T08:40:02.335Z,999.67
2022-09-11T08:41:02.307Z,999.62
2022-09-11T08:42:03.305Z,999.58
2022-09-11T08:43:02.327Z,999.57
2022-09-11T08:44:02.293Z,999.66
2022-09-11T08:45:02.351Z,999.67
2022-09-11T08:46:02.325Z,999.68
2022-09-11T08:47:02.267Z,999.70
2022-09-11T08:48:02.285Z,999.69
2022-09-11T08:49:02.253Z,999.69
2022-09-11T08:50:02.240Z,999.67
2022-09-11T08:51:02.236Z,999.68
2022-09-11T08:52:02.222Z,999.64
2022-09-11T08:53:02.250Z,999.74
2022-09-11T08:54:02.213Z,999.66
2022-09-11T08:55:02.207Z,999.62
2022-09-11T08:56:02.197Z,999.71
2022-09-11T08:57:02.204Z,999.63
2022-09-11T08:58:02.213Z,999.72
2022-09-11T08:59:02.177Z,999.69
2022-09-11T09:00:02.163Z,999.68
2022-09-11T09:01:02.253Z,999.66
2022-09-11T09:02:02.188Z,999.75
2022-09-11T09:03:02.169Z,999.67
2022-09-11T09:04:02.130Z,999.68
2022-09-11T09:05:02.126Z,999.69
2022-09-11T09:06:02.118Z,999.72
2022-09-11T09:07:02.103Z,999.70
2022-09-11T09:08:02.137Z,999.75
2022-09-11T09:09:02.179Z,999.76
2022-09-11T09:10:02.077Z,999.70
2022-09-11T09:11:02.077Z,999.72
2022-09-11T09:12:02.079Z,999.69
2022-09-11T09:13:02.095Z,999.70
2022-09-11T09:14:02.045Z,999.77
2022-09-11T09:15:02.039Z,999.77
2022-09-11T09:16:02.117Z,999.76
2022-09-11T09:17:02.024Z,999.76
2022-09-11T09:18:02.066Z,999.79
2022-09-11T09:19:02.014Z,999.79
2022-09-11T09:20:02.005Z,999.75
2022-09-11T09:21:01.997Z,999.77
2022-09-11T09:22:02.002Z,999.78
2022-09-11T09:23:02.002Z,999.80
2022-09-11T09:24:01.970Z,999.78
2022-09-11T09:25:01.972Z,999.84
2022-09-11T09:26:01.945Z,999.85
2022-09-11T09:27:01.942Z,999.83
2022-09-11T09:28:01.962Z,999.84
2022-09-11T09:29:01.924Z,999.99
2022-09-11T09:30:01.917Z,999.89
2022-09-11T09:31:01.942Z,999.93
2022-09-11T09:32:01.898Z,999.91
2022-09-11T09:33:01.917Z,999.88
2022-09-11T09:34:01.880Z,999.96
2022-09-11T09:35:01.877Z,999.98
2022-09-11T09:36:01.866Z,999.92
2022-09-11T09:37:01.860Z,999.95
2022-09-11T09:38:01.886Z,1000.02
2022-09-11T09:39:01.847Z,1000.03
2022-09-11T09:40:01.929Z,1000.07
2022-09-11T09:41:01.840Z,999.96
2022-09-11T09:42:01.818Z,999.98
2022-09-11T09:43:01.853Z,1000.03
2022-09-11T09:44:01.805Z,1000.02
2022-09-11T09:45:01.798Z,999.99
2022-09-11T09:46:01.856Z,999.97
2022-09-11T09:47:01.778Z,999.98
2022-09-11T09:48:01.801Z,999.98
2022-09-11T09:49:01.764Z,1000.02
2022-09-11T09:50:01.755Z,1000.03
2022-09-11T09:51:01.743Z,1000.03
2022-09-11T09:52:04.380Z,1000.01
2022-09-11T09:53:02.755Z,1000.04
2022-09-11T09:54:01.775Z,1000.01
2022-09-11T09:55:01.698Z,999.97
2022-09-11T09:56:02.704Z,1000.05
2022-09-11T09:57:01.697Z,1000.07
2022-09-11T09:58:01.686Z,1000.05
2022-09-11T09:59:01.730Z,1000.08
2022-09-11T10:00:02.658Z,1000.11
2022-09-11T10:01:02.712Z,1000.07
2022-09-11T10:02:01.719Z,1000.18
2022-09-11T10:03:01.673Z,1000.07
2022-09-11T10:04:01.638Z,1000.13
2022-09-11T10:05:01.630Z,1000.16
2022-09-11T10:06:01.621Z,1000.16
2022-09-11T10:07:01.616Z,1000.22
2022-09-11T10:08:01.630Z,1000.16
2022-09-11T10:09:03.575Z,1000.06
2022-09-11T10:10:02.594Z,1000.11
2022-09-11T10:11:01.577Z,1000.16
2022-09-11T10:12:01.570Z,1000.12
2022-09-11T10:13:18.144Z,1000.11
2022-09-11T10:14:03.550Z,1000.14
2022-09-11T10:15:01.546Z,1000.13
2022-09-11T10:16:01.615Z,1000.17
2022-09-11T10:17:01.528Z,1000.22
2022-09-11T10:18:01.550Z,1000.12
2022-09-11T10:19:01.511Z,1000.14
2022-09-11T10:20:01.500Z,1000.15
2022-09-11T10:21:02.017Z,1000.11
2022-09-11T10:22:02.483Z,1000.09
2022-09-11T10:23:01.505Z,1000.13
2022-09-11T10:24:01.470Z,1000.12
2022-09-11T10:25:01.464Z,1000.13
2022-09-11T10:26:01.456Z,1000.17
2022-09-11T10:27:01.442Z,1000.15
2022-09-11T10:28:01.461Z,1000.13
2022-09-11T10:29:01.436Z,1000.11
2022-09-11T10:30:01.416Z,1000.11
2022-09-11T10:31:01.433Z,1000.14
2022-09-11T10:32:01.397Z,1000.13
2022-09-11T10:33:03.670Z,1000.19
2022-09-11T10:34:02.391Z,1000.10
2022-09-11T10:35:01.377Z,1000.12
2022-09-11T10:36:01.380Z,1000.13
2022-09-11T10:37:01.370Z,1000.07
2022-09-11T10:38:01.352Z,1000.11
2022-09-11T10:39:01.373Z,1000.00
2022-09-11T10:40:01.355Z,1000.05
2022-09-11T10:41:01.328Z,1000.03
2022-09-11T10:42:01.323Z,1000.01
2022-09-11T10:43:01.437Z,1000.03
2022-09-11T10:44:01.299Z,1000.04
2022-09-11T10:45:01.298Z,1000.01
2022-09-11T10:46:01.350Z,1000.09
2022-09-11T10:47:01.278Z,1000.04
2022-09-11T10:48:01.272Z,1000.05
2022-09-11T10:49:01.297Z,1000.05
2022-09-11T10:50:01.252Z,1000.08
2022-09-11T10:51:01.251Z,1000.13
2022-09-11T10:52:01.265Z,1000.04
2022-09-11T10:53:01.240Z,1000.05
2022-09-11T10:54:01.257Z,1000.01
2022-09-11T10:55:01.214Z,1000.06
2022-09-11T10:56:01.201Z,1000.07
2022-09-11T10:57:01.207Z,1000.09
2022-09-11T10:58:01.189Z,1000.13
2022-09-11T10:59:01.212Z,1000.07
2022-09-11T11:00:01.179Z,1000.10
2022-09-11T11:01:01.167Z,1000.11
2022-09-11T11:02:01.193Z,1000.13
2022-09-11T11:03:01.158Z,1000.11
2022-09-11T11:04:01.182Z,1000.13
2022-09-11T11:05:01.137Z,1000.17
2022-09-11T11:06:01.138Z,1000.15
2022-09-11T11:07:01.123Z,1000.21
2022-09-11T11:08:01.127Z,1000.20
2022-09-11T11:09:01.144Z,1000.22
2022-09-11T11:10:07.597Z,1000.21
2022-09-11T11:11:02.107Z,1000.23
2022-09-11T11:12:01.088Z,1000.19
2022-09-11T11:13:01.085Z,1000.18
2022-09-11T11:14:01.103Z,1000.13
2022-09-11T11:15:01.061Z,1000.18
2022-09-11T11:16:01.095Z,1000.12
2022-09-11T11:17:01.044Z,1000.16
2022-09-11T11:18:01.030Z,1000.15
2022-09-11T11:19:01.054Z,1000.10
2022-09-11T11:20:01.021Z,1000.05
2022-09-11T11:21:01.013Z,1000.05
2022-09-11T11:22:01.009Z,1000.05
2022-09-11T11:23:00.994Z,1000.03
2022-09-11T11:24:01.018Z,1000.09
2022-09-11T11:25:00.983Z,1000.08
2022-09-11T11:26:00.968Z,1000.08
2022-09-11T11:27:00.965Z,1000.13
2022-09-11T11:28:00.956Z,1000.08
2022-09-11T11:29:00.982Z,1000.16
2022-09-11T11:30:00.943Z,1000.14
2022-09-11T11:31:00.985Z,1000.15
2022-09-11T11:32:00.938Z,1000.12
2022-09-11T11:33:00.927Z,1000.10
2022-09-11T11:34:00.943Z,1000.08
2022-09-11T11:35:00.898Z,1000.20
2022-09-11T11:36:00.898Z,1000.13
2022-09-11T11:37:00.884Z,1000.15
2022-09-11T11:38:00.873Z,1000.13
2022-09-11T11:39:00.869Z,1000.14
2022-09-11T11:40:00.908Z,1000.14
2022-09-11T11:41:00.852Z,1000.19
2022-09-11T11:42:00.842Z,1000.09
2022-09-11T11:43:00.850Z,1000.18
2022-09-11T11:44:00.830Z,1000.13
2022-09-11T11:45:00.858Z,1000.14
2022-09-11T11:46:00.855Z,1000.13
2022-09-11T11:47:00.804Z,1000.18
2022-09-11T11:48:00.803Z,1000.15
2022-09-11T11:49:00.791Z,1000.16
2022-09-11T11:50:00.816Z,1000.10
2022-09-11T11:51:00.790Z,1000.11
2022-09-11T11:52:00.770Z,1000.10
2022-09-11T11:53:00.760Z,1000.10
2022-09-11T11:54:00.788Z,1000.04
2022-09-11T11:55:00.753Z,1000.17
2022-09-11T11:56:00.733Z,1000.10
2022-09-11T11:57:00.728Z,1000.09
2022-09-11T11:58:00.745Z,1000.16
2022-09-11T11:59:00.744Z,1000.16
2022-09-11T12:00:00.704Z,1000.10
2022-09-11T12:01:00.702Z,1000.06
2022-09-11T12:02:00.714Z,1000.04
2022-09-11T12:03:00.674Z,1000.09
2022-09-11T12:04:00.704Z,1000.05
2022-09-11T12:05:00.668Z,1000.10
2022-09-11T12:06:00.655Z,1000.05
2022-09-11T12:07:00.656Z,999.99
2022-09-11T12:08:00.650Z,1000.04
2022-09-11T12:09:00.666Z,1000.09
2022-09-11T12:10:00.630Z,999.99
2022-09-11T12:11:00.627Z,1000.03
2022-09-11T12:12:00.616Z,1000.04
2022-09-11T12:13:00.618Z,1000.06
2022-09-11T12:14:00.630Z,999.98
2022-09-11T12:15:00.606Z,1000.06
2022-09-11T12:16:00.615Z,1000.08
2022-09-11T12:17:00.573Z,1000.08
2022-09-11T12:18:00.571Z,999.99
2022-09-11T12:19:00.588Z,1000.01
2022-09-11T12:20:00.552Z,999.96
2022-09-11T12:21:00.543Z,999.97
2022-09-11T12:22:00.544Z,999.92
2022-09-11T12:23:00.539Z,999.97
2022-09-11T12:24:00.554Z,999.90
2022-09-11T12:25:00.527Z,999.91